createdAt,value
2023-03-17T00:00:32.596Z,3.15
2023-03-17T00:05:31.531Z,3.27
2023-03-17T01:10:14.264Z,3.05
2023-03-17T01:15:08.772Z,3.17
2023-03-17T01:20:02.108Z,3.20
2023-03-17T01:24:55.414Z,3.14
2023-03-17T01:29:54.420Z,3.01
2023-03-17T01:34:47.855Z,3.03
2023-03-17T01:39:41.189Z,3.07
2023-03-17T01:44:34.883Z,3.01
2023-03-17T02:30:26.861Z,3.11
2023-03-17T02:35:20.734Z,2.67
2023-03-17T02:40:16.640Z,2.66
2023-03-17T02:45:13.210Z,2.85
2023-03-17T02:50:11.669Z,2.86
2023-03-17T02:55:05.644Z,2.71
2023-03-17T02:59:59.016Z,2.73
2023-03-17T03:04:53.064Z,2.81
2023-03-17T03:30:16.265Z,2.56
2023-03-17T03:35:10.745Z,2.54
2023-03-17T03:40:04.295Z,2.69
2023-03-17T03:44:57.669Z,2.81
2023-03-17T04:20:34.772Z,2.87
2023-03-17T04:25:28.565Z,2.97
2023-03-17T04:30:22.185Z,2.97
2023-03-17T04:35:19.144Z,2.99
2023-03-17T04:40:16.734Z,2.95
2023-03-17T04:45:14.101Z,2.77
2023-03-17T05:00:23.231Z,2.72
2023-03-17T05:10:17.389Z,2.41
2023-03-17T05:15:11.449Z,2.40
2023-03-17T05:20:08.466Z,2.41
2023-03-17T05:25:01.984Z,2.15
2023-03-17T05:29:55.358Z,2.37
2023-03-17T05:34:48.756Z,2.27
2023-03-17T05:39:45.638Z,2.09
2023-03-17T05:44:39.735Z,1.88
2023-03-17T06:50:58.538Z,3.03
2023-03-17T06:55:51.878Z,3.23
2023-03-17T07:00:49.044Z,3.39
2023-03-17T07:05:42.706Z,3.49
2023-03-17T07:46:25.025Z,4.80
2023-03-17T09:13:16.360Z,7.56
2023-03-17T09:18:10.626Z,7.60
2023-03-17T09:23:09.155Z,7.74
2023-03-17T09:28:02.717Z,8.00
2023-03-17T09:32:58.304Z,7.98
2023-03-17T09:37:51.677Z,7.94
2023-03-17T09:43:01.718Z,7.96
2023-03-17T09:48:29.760Z,8.22
2023-03-17T09:53:24.798Z,8.83
2023-03-17T10:34:19.161Z,10.07
2023-03-17T10:39:16.091Z,10.05
2023-03-17T10:44:40.697Z,10.22
2023-03-17T11:58:31.579Z,11.08
2023-03-17T12:10:13.173Z,11.33
2023-03-17T12:15:21.161Z,11.41
2023-03-17T12:20:31.831Z,11.14
2023-03-17T12:25:33.868Z,11.09
2023-03-17T12:41:10.745Z,11.75
2023-03-17T13:06:45.372Z,11.84
2023-03-17T13:16:47.990Z,12.02
2023-03-17T13:32:34.884Z,12.44
2023-03-17T13:37:35.775Z,12.46
2023-03-17T13:43:03.085Z,12.59
2023-03-17T13:48:33.763Z,12.45
2023-03-17T14:49:39.447Z,13.95
2023-03-17T14:54:35.898Z,13.98
2023-03-17T14:59:34.377Z,13.83
2023-03-17T15:04:30.484Z,13.71
2023-03-17T15:50:31.362Z,13.22
2023-03-17T15:55:29.494Z,13.16
2023-03-17T16:00:25.340Z,13.03
2023-03-17T16:05:22.215Z,12.95
2023-03-17T16:30:46.644Z,12.19
2023-03-17T16:40:49.735Z,11.93
2023-03-17T16:50:46.949Z,11.72
2023-03-17T16:55:41.516Z,11.63
2023-03-17T17:00:34.894Z,11.51
2023-03-17T17:05:32.281Z,11.41
2023-03-17T17:15:35.178Z,11.31
2023-03-17T17:20:34.884Z,11.23
2023-03-17T17:25:29.974Z,11.24
2023-03-17T17:56:04.734Z,10.92
2023-03-17T18:00:58.713Z,10.82
2023-03-17T18:05:52.246Z,10.73
2023-03-17T18:52:08.314Z,9.87
2023-03-17T18:57:13.616Z,9.76
2023-03-17T19:02:46.737Z,9.63
2023-03-17T19:07:51.054Z,9.62
2023-03-17T19:53:41.993Z,9.19
2023-03-17T20:39:39.238Z,8.75
2023-03-17T20:44:32.714Z,8.70
2023-03-17T20:49:28.056Z,8.67
2023-03-17T22:46:41.590Z,7.66
2023-03-17T22:51:36.031Z,7.62
2023-03-17T22:56:30.105Z,7.57
2023-03-17T23:01:25.798Z,7.45
2023-03-17T23:06:21.198Z,7.37
2023-03-17T23:31:43.604Z,7.42
2023-03-17T23:36:40.141Z,7.35
2023-03-17T23:41:33.800Z,7.14
2023-03-17T23:46:29.035Z,6.88
2023-03-17T23:56:30.831Z,6.96
